sensor_id;sensor_type;location;lat;lon;timestamp;noise_LAeq;noise_LA_min;noise_LA_max;noise_LA01;noise_LA95
61270;Laerm;47150;53.032;8.960;2023-04-24T00:00:27;30.64;29.41;31.77;;
61270;Laerm;47150;53.032;8.960;2023-04-24T00:02:52;30.63;29.33;31.73;;
61270;Laerm;47150;53.032;8.960;2023-04-24T00:05:22;30.62;29.49;31.87;;
61270;Laerm;47150;53.032;8.960;2023-04-24T00:07:47;30.61;29.39;31.84;;
61270;Laerm;47150;53.032;8.960;2023-04-24T00:10:12;30.60;29.56;32.04;;
61270;Laerm;47150;53.032;8.960;2023-04-24T00:12:38;30.62;29.38;31.76;;
61270;Laerm;47150;53.032;8.960;2023-04-24T00:15:04;30.60;29.32;31.72;;
61270;Laerm;47150;53.032;8.960;2023-04-24T00:17:30;30.59;29.35;31.69;;
61270;Laerm;47150;53.032;8.960;2023-04-24T00:19:55;30.58;29.21;31.91;;
61270;Laerm;47150;53.032;8.960;2023-04-24T00:22:24;30.59;29.33;31.67;;
61270;Laerm;47150;53.032;8.960;2023-04-24T00:24:50;30.57;29.18;31.66;;
61270;Laerm;47150;53.032;8.960;2023-04-24T00:27:15;30.56;29.18;31.71;;
61270;Laerm;47150;53.032;8.960;2023-04-24T00:29:41;30.56;29.30;31.76;;
61270;Laerm;47150;53.032;8.960;2023-04-24T00:32:06;30.55;29.22;31.74;;
61270;Laerm;47150;53.032;8.960;2023-04-24T00:34:31;30.54;29.13;31.73;;
61270;Laerm;47150;53.032;8.960;2023-04-24T00:36:57;30.54;29.27;31.59;;
61270;Laerm;47150;53.032;8.960;2023-04-24T00:39:23;30.54;29.03;31.77;;
61270;Laerm;47150;53.032;8.960;2023-04-24T00:41:48;30.54;29.35;31.70;;
61270;Laerm;47150;53.032;8.960;2023-04-24T00:44:14;30.53;29.25;31.76;;
61270;Laerm;47150;53.032;8.960;2023-04-24T00:46:40;30.52;29.24;31.56;;
61270;Laerm;47150;53.032;8.960;2023-04-24T00:49:06;30.53;29.23;32.05;;
61270;Laerm;47150;53.032;8.960;2023-04-24T00:51:32;30.51;29.22;31.68;;
61270;Laerm;47150;53.032;8.960;2023-04-24T00:54:00;30.50;29.19;31.70;;
61270;Laerm;47150;53.032;8.960;2023-04-24T00:56:27;30.50;28.96;31.80;;
61270;Laerm;47150;53.032;8.960;2023-04-24T00:58:53;30.51;29.06;31.92;;
61270;Laerm;47150;53.032;8.960;2023-04-24T01:01:22;30.49;29.32;31.63;;
61270;Laerm;47150;53.032;8.960;2023-04-24T01:03:49;30.50;29.35;31.71;;
61270;Laerm;47150;53.032;8.960;2023-04-24T01:06:16;30.49;29.26;31.62;;
61270;Laerm;47150;53.032;8.960;2023-04-24T01:08:43;30.48;29.19;31.84;;
61270;Laerm;47150;53.032;8.960;2023-04-24T01:11:09;30.48;29.23;31.54;;
61270;Laerm;47150;53.032;8.960;2023-04-24T01:13:34;30.46;29.29;31.60;;
61270;Laerm;47150;53.032;8.960;2023-04-24T01:16:00;30.46;29.23;31.62;;
61270;Laerm;47150;53.032;8.960;2023-04-24T01:18:26;30.47;29.25;31.62;;
61270;Laerm;47150;53.032;8.960;2023-04-24T01:20:53;30.47;29.18;31.85;;
61270;Laerm;47150;53.032;8.960;2023-04-24T01:23:22;30.45;29.21;31.52;;
61270;Laerm;47150;53.032;8.960;2023-04-24T01:25:49;30.45;29.33;31.72;;
61270;Laerm;47150;53.032;8.960;2023-04-24T01:28:14;30.45;29.09;31.73;;
61270;Laerm;47150;53.032;8.960;2023-04-24T01:30:40;30.45;29.13;31.69;;
61270;Laerm;47150;53.032;8.960;2023-04-24T01:33:06;30.44;29.23;31.68;;
61270;Laerm;47150;53.032;8.960;2023-04-24T01:35:32;30.44;28.85;31.65;;
61270;Laerm;47150;53.032;8.960;2023-04-24T01:37:57;30.42;29.14;31.64;;
61270;Laerm;47150;53.032;8.960;2023-04-24T01:40:23;30.43;29.16;31.54;;
61270;Laerm;47150;53.032;8.960;2023-04-24T01:42:48;30.43;29.25;31.79;;
61270;Laerm;47150;53.032;8.960;2023-04-24T01:45:14;30.42;29.07;31.69;;
61270;Laerm;47150;53.032;8.960;2023-04-24T01:47:39;30.43;29.15;31.61;;
61270;Laerm;47150;53.032;8.960;2023-04-24T01:50:06;30.42;29.02;31.50;;
61270;Laerm;47150;53.032;8.960;2023-04-24T01:52:31;30.40;29.14;31.48;;
61270;Laerm;47150;53.032;8.960;2023-04-24T01:55:04;30.41;29.25;31.65;;
61270;Laerm;47150;53.032;8.960;2023-04-24T01:57:31;30.41;29.24;31.54;;
61270;Laerm;47150;53.032;8.960;2023-04-24T01:59:57;30.40;29.20;31.70;;
61270;Laerm;47150;53.032;8.960;2023-04-24T02:02:22;30.40;29.18;31.51;;
61270;Laerm;47150;53.032;8.960;2023-04-24T02:04:49;30.40;29.04;31.67;;
61270;Laerm;47150;53.032;8.960;2023-04-24T02:07:15;30.41;29.24;31.64;;
61270;Laerm;47150;53.032;8.960;2023-04-24T02:09:41;30.41;29.17;31.49;;
61270;Laerm;47150;53.032;8.960;2023-04-24T02:12:06;30.41;29.23;31.51;;
61270;Laerm;47150;53.032;8.960;2023-04-24T02:14:32;30.40;29.33;31.50;;
61270;Laerm;47150;53.032;8.960;2023-04-24T02:16:57;30.39;28.68;31.65;;
61270;Laerm;47150;53.032;8.960;2023-04-24T02:19:22;30.40;28.96;31.50;;
61270;Laerm;47150;53.032;8.960;2023-04-24T02:21:48;30.40;29.26;31.65;;
61270;Laerm;47150;53.032;8.960;2023-04-24T02:24:13;30.39;28.97;31.68;;
61270;Laerm;47150;53.032;8.960;2023-04-24T02:26:38;30.39;29.23;31.50;;
61270;Laerm;47150;53.032;8.960;2023-04-24T02:29:04;30.39;29.06;31.72;;
61270;Laerm;47150;53.032;8.960;2023-04-24T02:31:29;30.38;29.15;31.58;;
61270;Laerm;47150;53.032;8.960;2023-04-24T02:33:54;30.37;28.97;31.40;;
61270;Laerm;47150;53.032;8.960;2023-04-24T02:36:20;30.38;29.07;31.58;;
61270;Laerm;47150;53.032;8.960;2023-04-24T02:38:46;30.37;29.22;31.44;;
61270;Laerm;47150;53.032;8.960;2023-04-24T02:41:11;30.38;29.19;31.52;;
61270;Laerm;47150;53.032;8.960;2023-04-24T02:43:36;30.36;29.04;31.47;;
61270;Laerm;47150;53.032;8.960;2023-04-24T02:46:02;30.36;29.16;31.72;;
61270;Laerm;47150;53.032;8.960;2023-04-24T02:48:27;30.35;29.16;31.42;;
61270;Laerm;47150;53.032;8.960;2023-04-24T02:50:54;30.37;29.03;31.51;;
61270;Laerm;47150;53.032;8.960;2023-04-24T02:53:19;30.36;29.20;31.45;;
61270;Laerm;47150;53.032;8.960;2023-04-24T02:55:44;30.36;29.04;31.50;;
61270;Laerm;47150;53.032;8.960;2023-04-24T02:58:11;30.36;29.08;31.55;;
61270;Laerm;47150;53.032;8.960;2023-04-24T03:00:38;30.35;28.92;31.65;;
61270;Laerm;47150;53.032;8.960;2023-04-24T03:03:03;30.33;28.98;31.44;;
61270;Laerm;47150;53.032;8.960;2023-04-24T03:05:28;30.34;29.02;31.52;;
61270;Laerm;47150;53.032;8.960;2023-04-24T03:07:55;30.34;29.06;31.46;;
61270;Laerm;47150;53.032;8.960;2023-04-24T03:10:21;30.34;28.84;31.49;;
61270;Laerm;47150;53.032;8.960;2023-04-24T03:12:47;30.35;28.89;31.60;;
61270;Laerm;47150;53.032;8.960;2023-04-24T03:15:13;30.34;29.17;31.62;;
61270;Laerm;47150;53.032;8.960;2023-04-24T03:17:38;30.33;29.13;31.49;;
61270;Laerm;47150;53.032;8.960;2023-04-24T03:20:04;30.33;29.02;31.38;;
61270;Laerm;47150;53.032;8.960;2023-04-24T03:22:33;30.33;29.04;31.49;;
61270;Laerm;47150;53.032;8.960;2023-04-24T03:24:59;30.33;28.79;31.41;;
61270;Laerm;47150;53.032;8.960;2023-04-24T03:27:24;30.33;29.18;31.39;;
61270;Laerm;47150;53.032;8.960;2023-04-24T03:29:50;30.32;29.03;31.50;;
61270;Laerm;47150;53.032;8.960;2023-04-24T03:32:21;30.32;29.10;31.49;;
61270;Laerm;47150;53.032;8.960;2023-04-24T03:34:47;30.32;29.04;31.49;;
61270;Laerm;47150;53.032;8.960;2023-04-24T03:37:12;30.32;28.94;31.52;;
61270;Laerm;47150;53.032;8.960;2023-04-24T03:39:38;30.32;29.08;31.48;;
61270;Laerm;47150;53.032;8.960;2023-04-24T03:42:03;30.33;29.06;31.66;;
61270;Laerm;47150;53.032;8.960;2023-04-24T03:44:28;30.31;29.12;31.38;;
61270;Laerm;47150;53.032;8.960;2023-04-24T03:46:54;30.32;28.93;31.42;;
61270;Laerm;47150;53.032;8.960;2023-04-24T03:49:19;30.31;29.11;31.50;;
61270;Laerm;47150;53.032;8.960;2023-04-24T03:51:45;30.32;28.93;31.70;;
61270;Laerm;47150;53.032;8.960;2023-04-24T03:54:11;30.31;28.92;31.61;;
61270;Laerm;47150;53.032;8.960;2023-04-24T03:56:36;30.31;29.05;31.47;;
61270;Laerm;47150;53.032;8.960;2023-04-24T03:59:01;30.31;29.12;31.45;;
61270;Laerm;47150;53.032;8.960;2023-04-24T04:01:27;30.31;29.15;31.68;;
61270;Laerm;47150;53.032;8.960;2023-04-24T04:03:53;30.30;29.18;31.42;;
61270;Laerm;47150;53.032;8.960;2023-04-24T04:06:18;30.30;29.04;31.35;;
61270;Laerm;47150;53.032;8.960;2023-04-24T04:08:44;30.31;28.96;31.57;;
61270;Laerm;47150;53.032;8.960;2023-04-24T04:11:09;30.31;28.88;31.75;;
61270;Laerm;47150;53.032;8.960;2023-04-24T04:13:35;30.30;29.14;31.62;;
61270;Laerm;47150;53.032;8.960;2023-04-24T04:16:00;30.30;28.88;31.43;;
61270;Laerm;47150;53.032;8.960;2023-04-24T04:18:25;30.30;28.93;31.33;;
61270;Laerm;47150;53.032;8.960;2023-04-24T04:20:51;30.30;28.88;31.49;;
61270;Laerm;47150;53.032;8.960;2023-04-24T04:23:16;30.30;28.78;31.42;;
61270;Laerm;47150;53.032;8.960;2023-04-24T04:25:42;30.30;29.02;31.37;;
61270;Laerm;47150;53.032;8.960;2023-04-24T04:28:07;30.30;29.08;31.45;;
61270;Laerm;47150;53.032;8.960;2023-04-24T04:30:32;30.29;29.14;31.48;;
61270;Laerm;47150;53.032;8.960;2023-04-24T04:32:59;30.28;29.06;31.40;;
61270;Laerm;47150;53.032;8.960;2023-04-24T04:35:24;30.29;28.92;31.44;;
61270;Laerm;47150;53.032;8.960;2023-04-24T04:37:50;30.29;29.05;31.50;;
61270;Laerm;47150;53.032;8.960;2023-04-24T04:40:16;30.29;29.03;31.31;;
61270;Laerm;47150;53.032;8.960;2023-04-24T04:42:41;30.29;29.12;31.41;;
61270;Laerm;47150;53.032;8.960;2023-04-24T04:45:08;30.32;28.82;31.46;;
61270;Laerm;47150;53.032;8.960;2023-04-24T04:47:37;30.35;29.14;31.53;;
61270;Laerm;47150;53.032;8.960;2023-04-24T04:50:02;30.34;28.84;31.42;;
61270;Laerm;47150;53.032;8.960;2023-04-24T04:52:29;30.36;29.03;31.52;;
61270;Laerm;47150;53.032;8.960;2023-04-24T04:54:55;30.82;29.50;32.02;;
61270;Laerm;47150;53.032;8.960;2023-04-24T04:57:20;31.40;30.11;32.65;;
61270;Laerm;47150;53.032;8.960;2023-04-24T04:59:46;31.80;30.50;33.01;;
61270;Laerm;47150;53.032;8.960;2023-04-24T05:02:12;32.30;30.91;33.77;;
61270;Laerm;47150;53.032;8.960;2023-04-24T05:04:37;32.90;31.62;34.27;;
61270;Laerm;47150;53.032;8.960;2023-04-24T05:07:02;34.06;32.29;35.83;;
61270;Laerm;47150;53.032;8.960;2023-04-24T05:09:28;36.00;34.06;37.77;;
61270;Laerm;47150;53.032;8.960;2023-04-24T05:11:54;37.50;35.95;39.18;;
61270;Laerm;47150;53.032;8.960;2023-04-24T05:14:20;38.04;36.56;39.29;;
61270;Laerm;47150;53.032;8.960;2023-04-24T05:16:46;38.25;36.98;39.33;;
61270;Laerm;47150;53.032;8.960;2023-04-24T05:19:11;38.30;37.13;39.61;;
61270;Laerm;47150;53.032;8.960;2023-04-24T05:21:39;38.36;37.10;39.57;;
61270;Laerm;47150;53.032;8.960;2023-04-24T05:24:05;38.36;37.05;39.59;;
61270;Laerm;47150;53.032;8.960;2023-04-24T05:26:30;38.32;36.98;39.45;;
61270;Laerm;47150;53.032;8.960;2023-04-24T05:28:55;38.32;37.04;39.60;;
61270;Laerm;47150;53.032;8.960;2023-04-24T05:31:21;38.25;36.82;39.63;;
61270;Laerm;47150;53.032;8.960;2023-04-24T05:33:46;38.21;36.94;39.70;;
61270;Laerm;47150;53.032;8.960;2023-04-24T05:36:12;38.23;36.84;39.74;;
61270;Laerm;47150;53.032;8.960;2023-04-24T05:38:37;38.19;36.70;39.59;;
61270;Laerm;47150;53.032;8.960;2023-04-24T05:41:03;38.13;36.50;39.34;;
61270;Laerm;47150;53.032;8.960;2023-04-24T05:43:28;38.09;36.81;39.32;;
61270;Laerm;47150;53.032;8.960;2023-04-24T05:45:53;38.04;36.81;39.10;;
61270;Laerm;47150;53.032;8.960;2023-04-24T05:48:19;37.98;36.38;39.16;;
61270;Laerm;47150;53.032;8.960;2023-04-24T05:50:44;38.02;36.38;39.26;;
61270;Laerm;47150;53.032;8.960;2023-04-24T05:53:10;38.10;36.65;39.45;;
61270;Laerm;47150;53.032;8.960;2023-04-24T05:55:36;38.19;36.83;39.37;;
61270;Laerm;47150;53.032;8.960;2023-04-24T05:58:01;38.17;36.82;39.55;;
61270;Laerm;47150;53.032;8.960;2023-04-24T06:00:26;38.13;36.67;39.38;;
61270;Laerm;47150;53.032;8.960;2023-04-24T06:02:52;38.06;36.69;39.29;;
61270;Laerm;47150;53.032;8.960;2023-04-24T06:05:18;38.01;36.58;39.38;;
61270;Laerm;47150;53.032;8.960;2023-04-24T06:07:43;37.97;36.70;39.11;;
61270;Laerm;47150;53.032;8.960;2023-04-24T06:10:10;37.98;36.49;39.08;;
61270;Laerm;47150;53.032;8.960;2023-04-24T06:12:35;37.95;36.62;39.19;;
61270;Laerm;47150;53.032;8.960;2023-04-24T06:15:02;37.85;36.45;39.23;;
61270;Laerm;47150;53.032;8.960;2023-04-24T06:17:27;37.82;36.52;39.03;;
61270;Laerm;47150;53.032;8.960;2023-04-24T06:19:52;37.81;36.31;39.17;;
61270;Laerm;47150;53.032;8.960;2023-04-24T06:22:18;37.79;36.35;39.16;;
61270;Laerm;47150;53.032;8.960;2023-04-24T06:24:43;37.75;36.23;39.20;;
61270;Laerm;47150;53.032;8.960;2023-04-24T06:27:09;37.73;36.42;38.88;;
61270;Laerm;47150;53.032;8.960;2023-04-24T06:29:36;37.73;36.39;39.14;;
61270;Laerm;47150;53.032;8.960;2023-04-24T06:32:02;37.72;36.43;38.95;;
61270;Laerm;47150;53.032;8.960;2023-04-24T06:34:27;37.74;36.38;39.19;;
61270;Laerm;47150;53.032;8.960;2023-04-24T06:36:53;37.74;36.40;38.98;;
61270;Laerm;47150;53.032;8.960;2023-04-24T06:39:20;37.75;36.47;39.11;;
61270;Laerm;47150;53.032;8.960;2023-04-24T06:41:45;37.73;36.28;39.07;;
61270;Laerm;47150;53.032;8.960;2023-04-24T06:44:10;37.74;36.51;39.06;;
61270;Laerm;47150;53.032;8.960;2023-04-24T06:46:36;37.73;36.12;39.03;;
61270;Laerm;47150;53.032;8.960;2023-04-24T06:49:01;37.74;36.49;38.96;;
61270;Laerm;47150;53.032;8.960;2023-04-24T06:51:26;37.72;36.27;38.96;;
61270;Laerm;47150;53.032;8.960;2023-04-24T06:53:55;37.72;36.37;38.94;;
61270;Laerm;47150;53.032;8.960;2023-04-24T06:56:23;37.71;36.34;38.89;;
61270;Laerm;47150;53.032;8.960;2023-04-24T06:58:48;37.71;36.18;38.84;;
61270;Laerm;47150;53.032;8.960;2023-04-24T07:01:14;37.71;36.34;38.92;;
61270;Laerm;47150;53.032;8.960;2023-04-24T07:03:39;37.70;36.44;38.94;;
61270;Laerm;47150;53.032;8.960;2023-04-24T07:06:05;37.72;36.45;38.99;;
61270;Laerm;47150;53.032;8.960;2023-04-24T07:08:31;37.72;36.45;38.99;;
61270;Laerm;47150;53.032;8.960;2023-04-24T07:10:58;37.72;36.46;39.09;;
61270;Laerm;47150;53.032;8.960;2023-04-24T07:13:24;37.73;36.43;38.92;;
61270;Laerm;47150;53.032;8.960;2023-04-24T07:15:49;37.74;36.44;39.16;;
61270;Laerm;47150;53.032;8.960;2023-04-24T07:18:16;37.76;36.47;38.93;;
61270;Laerm;47150;53.032;8.960;2023-04-24T07:20:42;37.75;36.32;38.91;;
61270;Laerm;47150;53.032;8.960;2023-04-24T07:23:07;37.76;36.40;38.96;;
61270;Laerm;47150;53.032;8.960;2023-04-24T07:25:33;37.77;36.38;39.14;;
61270;Laerm;47150;53.032;8.960;2023-04-24T07:27:58;37.79;36.32;38.93;;
61270;Laerm;47150;53.032;8.960;2023-04-24T07:30:24;37.77;36.36;38.94;;
61270;Laerm;47150;53.032;8.960;2023-04-24T07:32:49;37.76;36.56;39.15;;
61270;Laerm;47150;53.032;8.960;2023-04-24T07:35:15;37.77;36.48;38.87;;
61270;Laerm;47150;53.032;8.960;2023-04-24T07:37:40;37.76;36.47;39.11;;
61270;Laerm;47150;53.032;8.960;2023-04-24T07:40:11;37.79;36.49;39.14;;
61270;Laerm;47150;53.032;8.960;2023-04-24T07:42:37;37.81;36.40;39.35;;
61270;Laerm;47150;53.032;8.960;2023-04-24T07:45:03;37.77;36.47;39.21;;
61270;Laerm;47150;53.032;8.960;2023-04-24T07:47:29;37.76;36.31;39.55;;
61270;Laerm;47150;53.032;8.960;2023-04-24T07:49:54;37.73;36.45;39.00;;
61270;Laerm;47150;53.032;8.960;2023-04-24T07:52:20;37.74;36.29;38.89;;
61270;Laerm;47150;53.032;8.960;2023-04-24T07:54:45;37.77;36.32;38.99;;
61270;Laerm;47150;53.032;8.960;2023-04-24T07:57:10;37.81;36.41;46.55;;
61270;Laerm;47150;53.032;8.960;2023-04-24T07:59:36;37.84;36.61;39.20;;
61270;Laerm;47150;53.032;8.960;2023-04-24T08:02:01;37.83;36.47;39.15;;
61270;Laerm;47150;53.032;8.960;2023-04-24T08:04:27;38.00;36.49;53.07;;
61270;Laerm;47150;53.032;8.960;2023-04-24T08:06:52;37.83;36.51;40.51;;
61270;Laerm;47150;53.032;8.960;2023-04-24T08:09:17;37.80;36.43;43.85;;
61270;Laerm;47150;53.032;8.960;2023-04-24T08:11:43;37.72;36.49;38.92;;
61270;Laerm;47150;53.032;8.960;2023-04-24T08:14:08;37.68;36.51;38.83;;
61270;Laerm;47150;53.032;8.960;2023-04-24T08:16:34;37.65;36.29;39.25;;
61270;Laerm;47150;53.032;8.960;2023-04-24T08:19:00;37.79;36.30;50.51;;
61270;Laerm;47150;53.032;8.960;2023-04-24T08:21:26;37.78;36.28;41.55;;
61270;Laerm;47150;53.032;8.960;2023-04-24T08:23:52;37.87;36.50;52.67;;
61270;Laerm;47150;53.032;8.960;2023-04-24T08:26:17;37.78;36.56;39.10;;
61270;Laerm;47150;53.032;8.960;2023-04-24T08:28:43;37.83;36.34;48.10;;
61270;Laerm;47150;53.032;8.960;2023-04-24T08:31:08;37.73;36.41;38.93;;
61270;Laerm;47150;53.032;8.960;2023-04-24T08:33:34;37.68;36.15;39.79;;
61270;Laerm;47150;53.032;8.960;2023-04-24T08:36:04;37.70;36.04;42.64;;
61270;Laerm;47150;53.032;8.960;2023-04-24T08:38:29;37.79;36.16;43.89;;
61270;Laerm;47150;53.032;8.960;2023-04-24T08:40:57;37.82;36.48;42.23;;
61270;Laerm;47150;53.032;8.960;2023-04-24T08:43:23;37.87;36.31;44.51;;
61270;Laerm;47150;53.032;8.960;2023-04-24T08:45:49;37.77;36.61;41.97;;
61270;Laerm;47150;53.032;8.960;2023-04-24T08:48:16;37.72;36.34;39.04;;
61270;Laerm;47150;53.032;8.960;2023-04-24T08:50:42;37.70;36.46;38.85;;
61270;Laerm;47150;53.032;8.960;2023-04-24T08:53:10;37.72;36.57;39.13;;
61270;Laerm;47150;53.032;8.960;2023-04-24T08:55:35;37.78;36.45;39.07;;
61270;Laerm;47150;53.032;8.960;2023-04-24T08:58:02;37.79;36.54;39.23;;
61270;Laerm;47150;53.032;8.960;2023-04-24T09:00:28;37.84;36.55;39.78;;
61270;Laerm;47150;53.032;8.960;2023-04-24T09:02:54;37.88;36.44;39.06;;
61270;Laerm;47150;53.032;8.960;2023-04-24T09:05:21;37.89;36.59;39.09;;
61270;Laerm;47150;53.032;8.960;2023-04-24T09:07:53;38.12;36.60;53.55;;
61270;Laerm;47150;53.032;8.960;2023-04-24T09:10:21;37.96;36.28;43.50;;
61270;Laerm;47150;53.032;8.960;2023-04-24T09:12:46;37.90;36.69;41.19;;
61270;Laerm;47150;53.032;8.960;2023-04-24T09:15:12;37.91;36.59;39.89;;
61270;Laerm;47150;53.032;8.960;2023-04-24T09:17:37;37.86;36.52;39.18;;
61270;Laerm;47150;53.032;8.960;2023-04-24T09:20:04;37.83;36.37;39.92;;
61270;Laerm;47150;53.032;8.960;2023-04-24T09:22:32;37.80;36.51;39.37;;
61270;Laerm;47150;53.032;8.960;2023-04-24T09:25:05;37.84;36.46;44.61;;
61270;Laerm;47150;53.032;8.960;2023-04-24T09:27:32;37.90;36.51;53.07;;
61270;Laerm;47150;53.032;8.960;2023-04-24T09:29:59;37.77;36.23;46.90;;
61270;Laerm;47150;53.032;8.960;2023-04-24T09:32:25;37.73;36.30;44.00;;
61270;Laerm;47150;53.032;8.960;2023-04-24T09:35:09;37.83;36.18;52.03;;
61270;Laerm;47150;53.032;8.960;2023-04-24T09:37:38;37.77;36.35;41.57;;
61270;Laerm;47150;53.032;8.960;2023-04-24T09:42:37;37.87;36.54;44.27;;
61270;Laerm;47150;53.032;8.960;2023-04-24T09:45:04;37.89;36.55;42.10;;
61270;Laerm;47150;53.032;8.960;2023-04-24T09:47:39;37.85;36.68;42.04;;
61270;Laerm;47150;53.032;8.960;2023-04-24T09:50:15;37.86;36.22;46.44;;
61270;Laerm;47150;53.032;8.960;2023-04-24T09:52:46;37.83;36.54;45.84;;
61270;Laerm;47150;53.032;8.960;2023-04-24T09:55:19;37.85;36.33;40.81;;
61270;Laerm;47150;53.032;8.960;2023-04-24T09:57:52;37.90;36.63;42.27;;
61270;Laerm;47150;53.032;8.960;2023-04-24T10:00:21;38.16;36.65;51.60;;
61270;Laerm;47150;53.032;8.960;2023-04-24T10:02:54;37.92;36.68;42.23;;
61270;Laerm;47150;53.032;8.960;2023-04-24T10:05:23;37.94;36.51;46.65;;
61270;Laerm;47150;53.032;8.960;2023-04-24T10:07:48;37.89;36.63;42.70;;
61270;Laerm;47150;53.032;8.960;2023-04-24T10:10:14;37.94;36.42;42.42;;
61270;Laerm;47150;53.032;8.960;2023-04-24T10:12:40;37.96;36.40;51.17;;
61270;Laerm;47150;53.032;8.960;2023-04-24T10:15:06;37.87;36.38;47.74;;
61270;Laerm;47150;53.032;8.960;2023-04-24T10:17:32;37.80;36.42;49.39;;
61270;Laerm;47150;53.032;8.960;2023-04-24T10:20:00;37.75;36.12;45.29;;
61270;Laerm;47150;53.032;8.960;2023-04-24T10:22:26;37.68;36.31;41.31;;
61270;Laerm;47150;53.032;8.960;2023-04-24T10:24:52;37.67;36.34;40.38;;
61270;Laerm;47150;53.032;8.960;2023-04-24T10:27:20;37.73;36.26;42.00;;
61270;Laerm;47150;53.032;8.960;2023-04-24T10:29:46;37.86;36.30;50.93;;
61270;Laerm;47150;53.032;8.960;2023-04-24T10:32:12;38.71;35.83;57.24;;
61270;Laerm;47150;53.032;8.960;2023-04-24T10:34:38;37.91;36.51;50.17;;
61270;Laerm;47150;53.032;8.960;2023-04-24T10:37:03;37.91;36.50;44.27;;
61270;Laerm;47150;53.032;8.960;2023-04-24T10:39:29;37.90;36.44;45.14;;
61270;Laerm;47150;53.032;8.960;2023-04-24T10:41:55;37.80;36.41;42.55;;
61270;Laerm;47150;53.032;8.960;2023-04-24T10:44:24;37.75;36.14;39.71;;
61270;Laerm;47150;53.032;8.960;2023-04-24T10:46:53;37.74;36.52;40.19;;
61270;Laerm;47150;53.032;8.960;2023-04-24T10:49:28;37.76;36.21;41.55;;
61270;Laerm;47150;53.032;8.960;2023-04-24T10:52:00;37.76;36.28;39.41;;
61270;Laerm;47150;53.032;8.960;2023-04-24T10:59:48;37.82;36.28;45.63;;
61270;Laerm;47150;53.032;8.960;2023-04-24T11:02:17;37.80;36.53;39.71;;
61270;Laerm;47150;53.032;8.960;2023-04-24T11:04:44;37.96;36.48;47.70;;
61270;Laerm;47150;53.032;8.960;2023-04-24T11:07:10;38.03;36.28;47.79;;
61270;Laerm;47150;53.032;8.960;2023-04-24T11:09:36;38.18;36.62;54.07;;
61270;Laerm;47150;53.032;8.960;2023-04-24T11:12:07;37.74;36.39;39.04;;
61270;Laerm;47150;53.032;8.960;2023-04-24T11:17:35;37.88;36.49;50.87;;
61270;Laerm;47150;53.032;8.960;2023-04-24T11:20:10;37.87;36.57;45.92;;
61270;Laerm;47150;53.032;8.960;2023-04-24T11:22:38;37.87;36.30;39.79;;
61270;Laerm;47150;53.032;8.960;2023-04-24T11:25:05;37.92;36.52;43.18;;
61270;Laerm;47150;53.032;8.960;2023-04-24T11:27:38;37.89;36.54;42.00;;
61270;Laerm;47150;53.032;8.960;2023-04-24T11:30:05;37.88;36.51;45.46;;
61270;Laerm;47150;53.032;8.960;2023-04-24T11:35:00;37.86;36.42;39.63;;
61270;Laerm;47150;53.032;8.960;2023-04-24T11:37:30;37.89;36.48;44.10;;
61270;Laerm;47150;53.032;8.960;2023-04-24T11:39:58;37.85;36.54;43.70;;
61270;Laerm;47150;53.032;8.960;2023-04-24T11:42:24;37.83;36.45;46.14;;
61270;Laerm;47150;53.032;8.960;2023-04-24T11:44:52;37.89;36.51;43.92;;
61270;Laerm;47150;53.032;8.960;2023-04-24T11:47:19;37.89;36.48;45.96;;
61270;Laerm;47150;53.032;8.960;2023-04-24T11:49:44;37.93;36.49;45.54;;
61270;Laerm;47150;53.032;8.960;2023-04-24T11:52:09;37.87;36.18;40.12;;
61270;Laerm;47150;53.032;8.960;2023-04-24T11:54:36;37.87;36.52;39.60;;
61270;Laerm;47150;53.032;8.960;2023-04-24T11:57:04;37.86;36.51;46.69;;
61270;Laerm;47150;53.032;8.960;2023-04-24T11:59:35;37.84;36.54;41.62;;
61270;Laerm;47150;53.032;8.960;2023-04-24T12:02:01;37.84;36.70;40.19;;
61270;Laerm;47150;53.032;8.960;2023-04-24T12:04:38;37.87;36.14;45.28;;
61270;Laerm;47150;53.032;8.960;2023-04-24T12:07:04;37.80;36.40;39.39;;
61270;Laerm;47150;53.032;8.960;2023-04-24T12:09:47;37.70;35.92;49.31;;
61270;Laerm;47150;53.032;8.960;2023-04-24T12:12:16;37.57;36.34;39.85;;
61270;Laerm;47150;53.032;8.960;2023-04-24T12:14:49;37.68;36.11;39.84;;
61270;Laerm;47150;53.032;8.960;2023-04-24T12:17:24;37.74;36.41;40.38;;
61270;Laerm;47150;53.032;8.960;2023-04-24T12:19:50;37.71;36.33;38.96;;
61270;Laerm;47150;53.032;8.960;2023-04-24T12:22:16;37.79;36.36;46.70;;
61270;Laerm;47150;53.032;8.960;2023-04-24T12:24:58;37.88;36.38;45.69;;
61270;Laerm;47150;53.032;8.960;2023-04-24T12:27:24;37.80;36.50;42.56;;
61270;Laerm;47150;53.032;8.960;2023-04-24T12:29:56;37.65;36.31;39.93;;
61270;Laerm;47150;53.032;8.960;2023-04-24T12:32:22;37.73;36.45;40.59;;
61270;Laerm;47150;53.032;8.960;2023-04-24T12:34:49;37.68;36.37;41.45;;
61270;Laerm;47150;53.032;8.960;2023-04-24T12:37:15;37.63;36.14;44.09;;
61270;Laerm;47150;53.032;8.960;2023-04-24T12:40:06;37.64;36.17;41.36;;
61270;Laerm;47150;53.032;8.960;2023-04-24T12:42:33;37.70;36.45;38.97;;
61270;Laerm;47150;53.032;8.960;2023-04-24T12:45:00;36.50;34.83;38.14;;
61270;Laerm;47150;53.032;8.960;2023-04-24T12:47:27;36.85;35.00;38.52;;
61270;Laerm;47150;53.032;8.960;2023-04-24T12:49:52;34.47;32.43;36.49;;
61270;Laerm;47150;53.032;8.960;2023-04-24T12:52:22;49.94;30.60;86.17;;
61270;Laerm;47150;53.032;8.960;2023-04-24T12:54:58;51.96;24.65;88.18;;
61270;Laerm;47150;53.032;8.960;2023-04-24T12:57:24;25.94;24.62;27.26;;
61270;Laerm;47150;53.032;8.960;2023-04-24T12:59:54;26.28;25.00;27.72;;
61270;Laerm;47150;53.032;8.960;2023-04-24T13:02:20;28.82;25.20;60.64;;
61270;Laerm;47150;53.032;8.960;2023-04-24T13:04:47;28.38;25.08;31.82;;
61270;Laerm;47150;53.032;8.960;2023-04-24T13:07:13;29.70;27.14;34.17;;
61270;Laerm;47150;53.032;8.960;2023-04-24T13:09:43;27.65;26.30;30.76;;
61270;Laerm;47150;53.032;8.960;2023-04-24T13:12:09;28.05;26.53;30.82;;
61270;Laerm;47150;53.032;8.960;2023-04-24T13:14:35;28.43;26.80;30.21;;
61270;Laerm;47150;53.032;8.960;2023-04-24T13:17:01;28.23;26.79;31.98;;
61270;Laerm;47150;53.032;8.960;2023-04-24T13:19:27;28.45;26.64;31.60;;
61270;Laerm;47150;53.032;8.960;2023-04-24T13:21:53;54.53;26.87;90.52;;
61270;Laerm;47150;53.032;8.960;2023-04-24T13:24:20;30.21;26.56;56.94;;
61270;Laerm;47150;53.032;8.960;2023-04-24T13:26:45;31.50;26.36;46.79;;
61270;Laerm;47150;53.032;8.960;2023-04-24T13:29:11;29.50;26.10;38.85;;
61270;Laerm;47150;53.032;8.960;2023-04-24T13:31:36;27.49;25.87;33.35;;
61270;Laerm;47150;53.032;8.960;2023-04-24T13:34:03;27.67;26.23;30.38;;
61270;Laerm;47150;53.032;8.960;2023-04-24T13:36:29;27.51;26.16;28.95;;
61270;Laerm;47150;53.032;8.960;2023-04-24T13:38:55;27.87;26.41;29.09;;
61270;Laerm;47150;53.032;8.960;2023-04-24T13:41:20;27.42;26.08;28.54;;
61270;Laerm;47150;53.032;8.960;2023-04-24T13:43:45;28.22;26.73;29.75;;
61270;Laerm;47150;53.032;8.960;2023-04-24T13:46:11;27.05;24.80;41.75;;
61270;Laerm;47150;53.032;8.960;2023-04-24T13:48:36;26.12;25.04;27.21;;
61270;Laerm;47150;53.032;8.960;2023-04-24T13:51:02;26.05;24.83;29.29;;
61270;Laerm;47150;53.032;8.960;2023-04-24T13:53:27;26.30;24.96;27.60;;